createdAt,value
2022-12-18T00:01:21.230Z,10.73
2022-12-18T00:03:47.947Z,11.83
2022-12-18T00:06:15.540Z,12.80
2022-12-18T00:08:43.323Z,10.87
2022-12-18T00:11:12.801Z,13.03
2022-12-18T00:13:39.629Z,14.43
2022-12-18T00:16:20.819Z,11.70
2022-12-18T00:18:48.582Z,11.03
2022-12-18T00:21:15.265Z,11.00
2022-12-18T00:23:43.758Z,10.60
2022-12-18T00:26:19.104Z,9.83
2022-12-18T00:28:46.258Z,12.57
2022-12-18T00:31:16.037Z,12.00
2022-12-18T00:33:43.006Z,11.80
2022-12-18T00:36:18.815Z,11.67
2022-12-18T00:38:46.006Z,10.17
2022-12-18T00:41:15.022Z,10.07
2022-12-18T00:43:41.889Z,10.00
2022-12-18T00:46:08.547Z,10.37
2022-12-18T00:48:36.079Z,13.30
2022-12-18T00:51:02.457Z,12.43
2022-12-18T00:53:28.928Z,11.17
2022-12-18T00:55:55.390Z,9.77
2022-12-18T00:58:21.794Z,11.23
2022-12-18T01:00:48.162Z,10.10
2022-12-18T01:03:16.324Z,10.43
2022-12-18T01:05:43.398Z,8.80
2022-12-18T01:08:09.993Z,10.77
2022-12-18T01:10:36.580Z,10.47
2022-12-18T01:13:03.036Z,10.33
2022-12-18T01:15:29.630Z,11.13
2022-12-18T01:17:56.022Z,11.20
2022-12-18T01:20:22.418Z,9.60
2022-12-18T01:22:48.884Z,11.27
2022-12-18T01:25:15.314Z,10.70
2022-12-18T01:27:41.753Z,10.37
2022-12-18T01:30:08.878Z,10.03
2022-12-18T01:32:35.331Z,9.50
2022-12-18T01:35:02.913Z,9.83
2022-12-18T01:37:29.416Z,9.90
2022-12-18T01:39:56.628Z,12.67
2022-12-18T01:42:23.451Z,10.17
2022-12-18T01:45:28.826Z,9.67
2022-12-18T01:48:07.668Z,9.57
2022-12-18T01:50:41.148Z,9.20
2022-12-18T01:53:12.513Z,7.47
2022-12-18T01:55:44.604Z,10.40
2022-12-18T01:58:11.228Z,9.93
2022-12-18T02:00:37.640Z,10.30
2022-12-18T02:03:04.188Z,9.67
2022-12-18T02:05:36.625Z,10.17
2022-12-18T02:08:24.887Z,10.80
2022-12-18T02:11:03.451Z,9.43
2022-12-18T02:13:52.191Z,11.10
2022-12-18T02:16:47.757Z,9.30
2022-12-18T02:19:39.167Z,10.03
2022-12-18T02:22:52.231Z,8.27
2022-12-18T02:25:52.598Z,11.63
2022-12-18T02:28:23.512Z,10.13
2022-12-18T02:30:54.276Z,11.60
2022-12-18T02:33:26.183Z,10.77
2022-12-18T02:35:55.331Z,9.57
2022-12-18T02:38:21.926Z,12.83
2022-12-18T02:40:51.115Z,11.37
2022-12-18T02:43:17.558Z,10.53
2022-12-18T02:45:56.718Z,11.27
2022-12-18T02:48:26.892Z,8.97
2022-12-18T02:51:12.703Z,10.47
2022-12-18T02:53:54.344Z,10.80
2022-12-18T02:56:32.066Z,11.30
2022-12-18T02:59:07.239Z,9.00
2022-12-18T03:01:51.764Z,9.60
2022-12-18T03:04:23.801Z,8.47
2022-12-18T03:06:55.543Z,10.37
2022-12-18T03:09:40.360Z,8.90
2022-12-18T03:12:33.441Z,10.27
2022-12-18T03:15:29.027Z,10.17
2022-12-18T03:18:12.086Z,12.00
2022-12-18T03:20:40.770Z,12.43
2022-12-18T03:23:17.663Z,9.10
2022-12-18T03:25:46.876Z,9.93
2022-12-18T03:28:17.628Z,13.03
2022-12-18T03:30:46.614Z,10.57
2022-12-18T03:33:20.629Z,8.60
2022-12-18T03:35:47.586Z,9.57
2022-12-18T03:38:14.756Z,10.00
2022-12-18T03:40:44.134Z,10.97
2022-12-18T03:43:55.059Z,8.20
2022-12-18T03:46:31.803Z,10.47
2022-12-18T03:49:12.171Z,11.20
2022-12-18T03:51:45.016Z,8.97
2022-12-18T03:54:12.616Z,7.70
2022-12-18T03:56:48.004Z,8.77
2022-12-18T03:59:17.531Z,12.47
2022-12-18T04:01:48.595Z,10.80
2022-12-18T04:04:17.120Z,13.47
2022-12-18T04:06:45.701Z,10.97
2022-12-18T04:09:12.885Z,8.73
2022-12-18T04:11:40.596Z,12.60
2022-12-18T04:14:07.446Z,8.70
2022-12-18T04:16:34.113Z,7.83
2022-12-18T04:19:00.499Z,9.13
2022-12-18T04:21:26.914Z,7.07
2022-12-18T04:23:53.596Z,8.47
2022-12-18T04:26:20.020Z,10.50
2022-12-18T04:28:46.445Z,11.27
2022-12-18T04:31:14.028Z,10.80
2022-12-18T04:33:40.935Z,10.10
2022-12-18T04:36:08.159Z,8.00
2022-12-18T04:38:34.628Z,7.17
2022-12-18T04:41:01.041Z,11.07
2022-12-18T04:43:27.611Z,9.63
2022-12-18T04:45:54.036Z,8.03
2022-12-18T04:48:21.662Z,7.87
2022-12-18T04:50:49.074Z,13.93
2022-12-18T04:53:15.522Z,10.10
2022-12-18T04:55:41.943Z,9.27
2022-12-18T04:58:08.511Z,8.57
2022-12-18T05:00:36.062Z,11.33
2022-12-18T05:03:03.435Z,8.50
2022-12-18T05:05:30.262Z,8.37
2022-12-18T05:07:56.650Z,7.77
2022-12-18T05:10:23.002Z,7.23
2022-12-18T05:13:01.817Z,7.70
2022-12-18T05:15:33.096Z,7.23
2022-12-18T05:18:00.093Z,8.57
2022-12-18T05:20:27.752Z,7.97
2022-12-18T05:22:55.147Z,11.17
2022-12-18T05:25:22.937Z,7.83
2022-12-18T05:27:49.668Z,9.50
2022-12-18T05:30:16.751Z,8.53
2022-12-18T05:32:43.713Z,9.27
2022-12-18T05:35:13.335Z,10.27
2022-12-18T05:37:43.219Z,7.47
2022-12-18T05:40:11.114Z,8.90
2022-12-18T05:42:37.850Z,7.53
2022-12-18T05:45:05.620Z,6.70
2022-12-18T05:47:32.075Z,8.23
2022-12-18T05:49:58.664Z,8.43
2022-12-18T05:52:25.533Z,8.33
2022-12-18T05:54:51.983Z,11.77
2022-12-18T05:57:18.564Z,8.23
2022-12-18T05:59:45.102Z,9.27
2022-12-18T06:02:11.586Z,10.30
2022-12-18T06:04:38.129Z,9.47
2022-12-18T06:07:04.854Z,9.17
2022-12-18T06:09:31.272Z,9.13
2022-12-18T06:11:57.684Z,7.03
2022-12-18T06:14:24.262Z,7.13
2022-12-18T06:16:52.856Z,9.27
2022-12-18T06:19:19.335Z,8.23
2022-12-18T06:21:46.627Z,7.83
2022-12-18T06:24:13.125Z,10.87
2022-12-18T06:26:39.908Z,8.67
2022-12-18T06:29:06.495Z,10.20
2022-12-18T06:31:33.086Z,8.07
2022-12-18T06:33:59.584Z,7.77
2022-12-18T06:36:26.078Z,9.80
2022-12-18T06:38:52.480Z,8.07
2022-12-18T06:41:21.767Z,9.17
2022-12-18T06:43:48.276Z,10.70
2022-12-18T06:46:15.072Z,12.93
2022-12-18T06:48:41.613Z,16.17
2022-12-18T06:51:08.236Z,8.80
2022-12-18T06:53:35.083Z,8.77
2022-12-18T06:56:09.156Z,10.40
2022-12-18T06:58:36.534Z,9.50
2022-12-18T07:01:05.640Z,12.00
2022-12-18T07:03:32.777Z,9.77
2022-12-18T07:05:59.340Z,9.93
2022-12-18T07:08:26.052Z,8.67
2022-12-18T07:10:56.113Z,9.23
2022-12-18T07:13:23.719Z,13.13
2022-12-18T07:15:50.332Z,11.53
2022-12-18T07:18:16.756Z,12.63
2022-12-18T07:20:43.192Z,11.03
2022-12-18T07:23:09.779Z,10.37
2022-12-18T07:25:37.193Z,11.47
2022-12-18T07:28:04.756Z,12.33
2022-12-18T07:30:31.095Z,12.00
2022-12-18T07:32:57.508Z,11.47
2022-12-18T07:35:25.298Z,9.27
2022-12-18T07:37:52.156Z,11.83
2022-12-18T07:40:18.641Z,11.87
2022-12-18T07:42:45.052Z,10.50
2022-12-18T07:45:11.906Z,10.80
2022-12-18T07:47:38.303Z,9.37
2022-12-18T07:50:05.816Z,9.40
2022-12-18T07:52:32.205Z,13.90
2022-12-18T07:54:59.499Z,10.43
2022-12-18T07:58:00.860Z,10.67
2022-12-18T08:00:13.341Z,9.97
2022-12-18T08:02:40.097Z,13.27
2022-12-18T08:05:07.082Z,10.40
2022-12-18T08:07:33.500Z,11.47
2022-12-18T08:10:00.008Z,7.93
2022-12-18T08:12:26.440Z,9.97
2022-12-18T08:14:52.805Z,12.37
2022-12-18T08:17:21.125Z,14.70
2022-12-18T08:19:47.565Z,11.17
2022-12-18T08:22:14.014Z,12.43
2022-12-18T08:24:40.418Z,14.07
2022-12-18T08:27:28.363Z,16.40
2022-12-18T08:29:53.427Z,16.87
2022-12-18T08:32:19.905Z,13.83
2022-12-18T08:34:46.339Z,16.00
2022-12-18T08:37:12.940Z,15.93
2022-12-18T08:39:39.349Z,14.97
2022-12-18T08:42:24.567Z,17.90
2022-12-18T08:44:51.116Z,17.63
2022-12-18T08:47:17.562Z,14.33
2022-12-18T08:49:44.028Z,14.07
2022-12-18T08:52:10.442Z,14.47
2022-12-18T08:54:36.904Z,12.47
2022-12-18T08:57:03.313Z,13.20
2022-12-18T08:59:29.699Z,15.33
2022-12-18T09:01:56.503Z,12.30
2022-12-18T09:04:23.429Z,13.30
2022-12-18T09:06:49.898Z,15.83
2022-12-18T09:09:16.527Z,13.23
2022-12-18T09:11:42.844Z,18.40
2022-12-18T09:14:10.430Z,19.97
2022-12-18T09:16:36.793Z,20.47
2022-12-18T09:19:04.953Z,14.07
2022-12-18T09:21:36.880Z,12.23
2022-12-18T09:24:04.497Z,9.47
2022-12-18T09:26:33.560Z,12.17
2022-12-18T09:29:00.020Z,9.57
2022-12-18T09:31:26.487Z,11.07
2022-12-18T09:33:52.949Z,10.40
2022-12-18T09:36:20.349Z,9.70
2022-12-18T09:38:48.204Z,7.90
2022-12-18T09:41:20.823Z,10.73
2022-12-18T09:43:51.298Z,8.97
2022-12-18T09:46:26.977Z,10.40
2022-12-18T09:48:58.068Z,12.30
2022-12-18T09:51:31.004Z,10.07
2022-12-18T09:54:05.247Z,11.23
2022-12-18T09:56:38.583Z,7.87
2022-12-18T09:59:05.786Z,9.53
2022-12-18T10:01:41.578Z,11.73
2022-12-18T10:04:11.171Z,9.43
2022-12-18T10:06:52.648Z,8.37
2022-12-18T10:09:18.939Z,10.00
2022-12-18T10:12:20.497Z,9.73
2022-12-18T10:15:05.585Z,11.10
2022-12-18T10:18:06.497Z,10.77
2022-12-18T10:20:48.832Z,12.80
2022-12-18T10:23:22.343Z,9.37
2022-12-18T10:25:59.070Z,9.40
2022-12-18T10:28:27.254Z,9.83
2022-12-18T10:30:53.807Z,9.47
2022-12-18T10:33:23.083Z,8.63
2022-12-18T10:35:53.601Z,9.10
2022-12-18T10:38:20.182Z,9.80
2022-12-18T10:40:58.233Z,11.20
2022-12-18T10:43:33.725Z,14.87
2022-12-18T10:46:09.470Z,9.27
2022-12-18T10:48:48.237Z,9.37
2022-12-18T10:51:31.877Z,8.90
2022-12-18T10:54:01.351Z,10.20
2022-12-18T10:56:31.235Z,11.67
2022-12-18T10:59:06.980Z,19.87
2022-12-18T11:01:56.558Z,9.70
2022-12-18T11:04:26.049Z,10.30
2022-12-18T11:06:55.861Z,11.90
2022-12-18T11:09:25.210Z,9.63
2022-12-18T11:11:54.811Z,12.43
2022-12-18T11:14:28.388Z,9.60
2022-12-18T11:17:24.799Z,11.37
2022-12-18T11:19:42.926Z,9.97
2022-12-18T11:22:28.810Z,11.63
2022-12-18T11:25:33.490Z,13.90
2022-12-18T11:28:04.534Z,11.43
2022-12-18T11:30:36.699Z,11.93
2022-12-18T11:33:19.722Z,10.30
2022-12-18T11:35:54.601Z,11.10
2022-12-18T11:38:26.370Z,10.17
2022-12-18T11:40:59.467Z,12.53
2022-12-18T11:43:32.332Z,13.50
2022-12-18T11:46:19.345Z,12.33
2022-12-18T11:48:53.234Z,12.57
2022-12-18T11:51:34.956Z,10.97
2022-12-18T11:54:09.328Z,11.00
2022-12-18T11:57:02.528Z,13.13
2022-12-18T12:00:14.201Z,13.27
2022-12-18T12:03:08.723Z,11.87
2022-12-18T12:06:02.846Z,12.93
2022-12-18T12:08:50.336Z,16.13
2022-12-18T12:11:41.704Z,12.00
2022-12-18T12:14:29.838Z,14.13
2022-12-18T12:17:07.991Z,11.87
2022-12-18T12:19:58.283Z,9.53
2022-12-18T12:22:47.258Z,13.67
2022-12-18T12:25:22.747Z,14.13
2022-12-18T12:28:04.873Z,13.33
2022-12-18T12:30:40.655Z,16.07
2022-12-18T12:33:45.149Z,11.93
2022-12-18T12:36:17.588Z,12.20
2022-12-18T12:39:01.620Z,13.10
2022-12-18T12:41:52.126Z,14.50
2022-12-18T12:47:41.858Z,14.07
2022-12-18T12:50:17.061Z,14.87
2022-12-18T12:52:52.711Z,15.20
2022-12-18T12:55:23.740Z,18.50
2022-12-18T12:57:58.206Z,14.43
2022-12-18T13:00:27.889Z,13.80
2022-12-18T13:03:17.639Z,16.77
2022-12-18T13:05:55.745Z,13.33
2022-12-18T13:08:28.349Z,16.97
2022-12-18T13:11:23.151Z,15.70
2022-12-18T13:13:55.240Z,15.17
2022-12-18T13:16:26.494Z,17.33
2022-12-18T13:18:57.676Z,17.33
2022-12-18T13:21:33.894Z,15.83
2022-12-18T13:24:22.854Z,17.67
2022-12-18T13:26:49.453Z,16.17
2022-12-18T13:29:45.640Z,16.30
2022-12-18T13:32:25.383Z,16.53
2022-12-18T13:35:21.535Z,14.70
2022-12-18T13:37:53.991Z,14.40
2022-12-18T13:40:39.240Z,20.47
2022-12-18T13:43:21.152Z,19.53
2022-12-18T13:46:25.332Z,16.77
2022-12-18T13:49:00.788Z,14.43
2022-12-18T13:51:29.476Z,18.17
2022-12-18T13:54:00.432Z,16.83
2022-12-18T13:56:32.749Z,13.60
2022-12-18T13:59:16.048Z,20.37
2022-12-18T14:01:50.469Z,18.23
2022-12-18T14:04:29.671Z,17.90
2022-12-18T14:07:05.206Z,17.13
2022-12-18T14:09:36.940Z,16.43
2022-12-18T14:12:23.308Z,17.43
2022-12-18T14:14:54.997Z,17.13
2022-12-18T14:17:21.521Z,17.53
2022-12-18T14:19:51.212Z,20.10
2022-12-18T14:22:28.579Z,17.57
2022-12-18T14:25:13.340Z,14.47
2022-12-18T14:27:46.456Z,14.30
2022-12-18T14:30:25.298Z,17.03
2022-12-18T14:33:11.770Z,18.13
2022-12-18T14:35:41.120Z,18.50
2022-12-18T14:38:29.649Z,18.40
2022-12-18T14:41:20.564Z,18.00
2022-12-18T14:43:49.208Z,17.83
2022-12-18T14:46:44.732Z,20.27
2022-12-18T14:49:35.034Z,18.53
2022-12-18T14:52:06.908Z,18.23
2022-12-18T14:54:36.020Z,18.00
2022-12-18T14:57:18.016Z,19.10
2022-12-18T14:59:44.533Z,22.10
2022-12-18T15:02:17.364Z,19.87
2022-12-18T15:04:44.948Z,19.87
2022-12-18T15:07:22.610Z,15.50
2022-12-18T15:10:13.693Z,18.30
2022-12-18T15:13:00.588Z,16.63
2022-12-18T15:15:36.855Z,18.20
2022-12-18T15:18:12.621Z,17.70
2022-12-18T15:20:43.979Z,18.73
2022-12-18T15:23:25.732Z,18.17
2022-12-18T15:26:12.826Z,19.83
2022-12-18T15:28:47.624Z,22.17
2022-12-18T15:31:14.042Z,18.73
2022-12-18T15:34:01.655Z,17.97
2022-12-18T15:36:30.953Z,18.03
2022-12-18T15:39:04.032Z,22.10
2022-12-18T15:41:37.257Z,19.70
2022-12-18T15:44:21.112Z,18.70
2022-12-18T15:46:47.734Z,21.13
2022-12-18T15:49:14.166Z,21.60
2022-12-18T15:51:40.675Z,21.50
2022-12-18T15:54:13.024Z,20.77
2022-12-18T15:56:57.825Z,22.17
2022-12-18T15:59:25.281Z,20.57
2022-12-18T16:01:54.116Z,23.30
2022-12-18T16:04:22.869Z,20.80
2022-12-18T16:09:37.496Z,20.87
2022-12-18T16:12:04.175Z,23.37
2022-12-18T16:14:31.654Z,19.90
2022-12-18T16:17:01.637Z,23.40
2022-12-18T16:19:29.240Z,20.57
2022-12-18T16:21:57.869Z,24.03
2022-12-18T16:24:30.120Z,28.33
2022-12-18T16:26:59.723Z,22.63
2022-12-18T16:29:28.592Z,23.47
2022-12-18T16:32:00.380Z,21.23
2022-12-18T16:34:35.911Z,21.33
2022-12-18T16:37:06.154Z,24.57
2022-12-18T16:39:37.183Z,25.30
2022-12-18T16:42:13.406Z,30.47
2022-12-18T16:44:39.729Z,25.67
2022-12-18T16:47:06.103Z,24.43
2022-12-18T16:49:35.153Z,24.37
2022-12-18T16:52:01.531Z,25.23
2022-12-18T16:54:30.502Z,28.83
2022-12-18T16:56:57.668Z,24.40
2022-12-18T16:59:24.140Z,24.33
2022-12-18T17:01:50.599Z,25.10
2022-12-18T17:04:17.188Z,24.83
2022-12-18T17:06:45.471Z,24.70
2022-12-18T17:09:16.857Z,26.53
2022-12-18T17:11:43.469Z,28.03
2022-12-18T17:14:13.549Z,25.20
2022-12-18T17:16:40.235Z,25.67
2022-12-18T17:19:10.963Z,25.50
2022-12-18T17:21:41.886Z,21.97
2022-12-18T17:24:08.862Z,26.70
2022-12-18T17:26:35.192Z,29.73
2022-12-18T17:29:01.561Z,26.73
2022-12-18T17:31:30.094Z,27.70
2022-12-18T17:33:57.871Z,27.87
2022-12-18T17:36:28.495Z,27.40
2022-12-18T17:38:58.026Z,29.20
2022-12-18T17:41:25.780Z,30.00
2022-12-18T17:43:53.727Z,30.80
2022-12-18T17:46:20.777Z,27.63
2022-12-18T17:48:47.321Z,30.00
2022-12-18T17:51:14.997Z,28.00
2022-12-18T17:53:41.817Z,26.57
2022-12-18T17:56:12.021Z,26.27
2022-12-18T17:58:39.645Z,31.27
2022-12-18T18:01:06.964Z,27.53
2022-12-18T18:03:34.729Z,27.70
2022-12-18T18:06:02.481Z,28.77
2022-12-18T18:08:29.149Z,29.30
2022-12-18T18:11:16.064Z,27.30
2022-12-18T18:14:00.855Z,25.47
2022-12-18T18:16:40.991Z,31.20
2022-12-18T18:19:10.840Z,30.00
2022-12-18T18:21:42.951Z,28.07
2022-12-18T18:24:11.427Z,25.83
2022-12-18T18:26:38.374Z,31.50
2022-12-18T18:29:06.684Z,29.87
2022-12-18T18:31:35.299Z,26.10
2022-12-18T18:34:07.764Z,29.07
2022-12-18T18:36:34.602Z,27.00
2022-12-18T18:39:01.440Z,30.47
2022-12-18T18:41:29.831Z,30.27
2022-12-18T18:43:57.627Z,29.97
2022-12-18T18:46:24.454Z,29.57
2022-12-18T18:48:50.989Z,31.87
2022-12-18T18:51:21.106Z,34.73
2022-12-18T18:53:50.126Z,30.73
2022-12-18T18:59:05.324Z,32.03
2022-12-18T19:01:31.878Z,27.43
2022-12-18T19:03:58.432Z,29.50
2022-12-18T19:06:27.265Z,32.03
2022-12-18T19:08:55.762Z,31.87
2022-12-18T19:11:42.215Z,32.73
2022-12-18T19:14:10.583Z,27.67
2022-12-18T19:16:37.377Z,31.83
2022-12-18T19:19:04.622Z,35.97
2022-12-18T19:21:34.244Z,33.93
2022-12-18T19:24:02.494Z,29.80
2022-12-18T19:26:29.091Z,31.93
2022-12-18T19:29:02.045Z,35.13
2022-12-18T19:31:34.764Z,31.87
2022-12-18T19:34:02.011Z,31.23
2022-12-18T19:36:29.921Z,30.87
2022-12-18T19:38:59.641Z,31.93
2022-12-18T19:41:31.125Z,31.53
2022-12-18T19:43:58.498Z,32.40
2022-12-18T19:46:25.217Z,28.53
2022-12-18T19:48:52.134Z,29.27
2022-12-18T19:51:27.212Z,31.17
2022-12-18T19:53:58.524Z,27.80
2022-12-18T19:56:28.144Z,28.23
2022-12-18T19:58:54.698Z,32.03
2022-12-18T20:01:23.180Z,31.67
2022-12-18T20:03:52.239Z,26.87
2022-12-18T20:06:27.033Z,28.60
2022-12-18T20:08:58.212Z,30.13
2022-12-18T20:11:26.822Z,23.77
2022-12-18T20:13:53.153Z,32.13
2022-12-18T20:16:19.655Z,31.47
2022-12-18T20:18:46.120Z,27.57
2022-12-18T20:21:14.148Z,30.53
2022-12-18T20:23:41.487Z,28.83
2022-12-18T20:26:08.652Z,29.37
2022-12-18T20:28:35.238Z,30.60
2022-12-18T20:31:03.449Z,30.07
2022-12-18T20:33:30.405Z,31.83
2022-12-18T20:36:06.194Z,27.27
2022-12-18T20:38:33.383Z,28.27
2022-12-18T20:41:02.354Z,30.77
2022-12-18T20:43:29.567Z,32.73
2022-12-18T20:46:03.922Z,28.27
2022-12-18T20:48:30.716Z,30.77
2022-12-18T20:51:17.895Z,34.30
2022-12-18T20:53:45.869Z,31.53
2022-12-18T20:56:21.204Z,29.20
2022-12-18T20:58:49.520Z,32.65
2022-12-18T21:01:18.775Z,32.37
2022-12-18T21:03:46.024Z,32.07
2022-12-18T21:06:13.734Z,28.23
2022-12-18T21:08:40.135Z,28.33
2022-12-18T21:11:40.419Z,29.93
2022-12-18T21:14:11.714Z,30.70
2022-12-18T21:16:39.891Z,29.97
2022-12-18T21:19:06.480Z,30.73
2022-12-18T21:21:38.585Z,30.23
2022-12-18T21:24:06.716Z,31.70
2022-12-18T21:26:33.693Z,27.53
2022-12-18T21:29:03.014Z,29.40
2022-12-18T21:31:32.216Z,30.07
2022-12-18T21:34:01.907Z,32.37
2022-12-18T21:36:29.220Z,31.60
2022-12-18T21:38:56.496Z,30.73
2022-12-18T21:41:42.525Z,26.33
2022-12-18T21:44:13.463Z,31.40
2022-12-18T21:46:43.160Z,30.33
2022-12-18T21:49:10.738Z,31.50
2022-12-18T21:51:37.876Z,36.53
2022-12-18T21:54:04.479Z,35.97
2022-12-18T21:57:04.407Z,27.17
2022-12-18T21:59:41.649Z,33.47
2022-12-18T22:02:15.778Z,32.27
2022-12-18T22:04:43.611Z,32.57
2022-12-18T22:07:10.872Z,31.33
2022-12-18T22:09:38.130Z,38.47
2022-12-18T22:12:04.812Z,30.63
2022-12-18T22:14:31.295Z,33.23
2022-12-18T22:16:58.705Z,30.93
2022-12-18T22:19:26.204Z,32.07
2022-12-18T22:21:53.767Z,32.00
2022-12-18T22:24:25.815Z,33.77
2022-12-18T22:26:54.184Z,32.27
2022-12-18T22:29:47.222Z,31.90
2022-12-18T22:32:16.851Z,34.03
2022-12-18T22:34:46.775Z,32.53
2022-12-18T22:37:13.560Z,35.73
2022-12-18T22:39:40.216Z,33.43
2022-12-18T22:42:07.432Z,32.17
2022-12-18T22:44:33.906Z,33.47
2022-12-18T22:47:06.118Z,34.70
2022-12-18T22:49:35.679Z,34.93
2022-12-18T22:52:03.604Z,33.67
2022-12-18T22:54:30.096Z,32.73
2022-12-18T22:56:57.027Z,30.63
2022-12-18T22:59:24.031Z,32.37
2022-12-18T23:01:55.017Z,32.00
2022-12-18T23:04:29.068Z,34.57
2022-12-18T23:07:01.514Z,38.30
2022-12-18T23:09:28.464Z,37.73
2022-12-18T23:11:54.862Z,32.47
2022-12-18T23:14:21.263Z,33.43
2022-12-18T23:16:47.739Z,33.33
2022-12-18T23:19:16.411Z,35.23
2022-12-18T23:21:42.920Z,32.63
2022-12-18T23:24:09.318Z,36.73
2022-12-18T23:26:36.463Z,33.27
2022-12-18T23:29:03.660Z,31.13
2022-12-18T23:31:33.066Z,36.60
2022-12-18T23:34:01.581Z,31.17
2022-12-18T23:36:28.700Z,34.00
2022-12-18T23:39:00.558Z,34.13
2022-12-18T23:41:30.175Z,35.23
2022-12-18T23:43:57.636Z,32.30
2022-12-18T23:46:32.768Z,33.37
2022-12-18T23:49:01.117Z,32.50
2022-12-18T23:51:28.538Z,34.50
2022-12-18T23:53:57.459Z,33.33
2022-12-18T23:56:24.821Z,32.30
2022-12-18T23:58:52.104Z,34.57
